Time;durP1;ratioP1;P1;durP2;ratioP2;P2;SDS_P1;SDS_P2;PMS_P1;PMS_P2;Temp;Humidity;BMP_temperature;BMP_pressure;BME280_temperature;BME280_humidity;BME280_pressure;Samples;Min_cycle;Max_cycle;Signal;HPM_P1;HPM_P2
2021/07/03 00:01:52;;;;;;;5.72;4.32;;;;;;;18.16;62.20;100596.25;5032233;28;20103;-41
2021/07/03 00:04:19;;;;;;;4.63;3.67;;;;;;;18.11;62.48;100596.63;5032227;28;20551;-41
2021/07/03 00:06:46;;;;;;;5.18;3.97;;;;;;;18.07;62.78;100598.66;5031323;28;20184;-42
2021/07/03 00:09:15;;;;;;;7.47;3.55;;;;;;;18.04;62.71;100596.63;5030019;28;20062;-43
2021/07/03 00:11:43;;;;;;;6.63;3.67;;;;;;;18.03;62.91;100592.25;5031695;28;20100;-42
2021/07/03 00:14:10;;;;;;;5.82;2.97;;;;;;;17.96;63.09;100595.03;5014608;28;20061;-41
2021/07/03 00:16:37;;;;;;;4.97;3.67;;;;;;;17.90;63.24;100600.22;5031575;28;20502;-42
2021/07/03 00:19:05;;;;;;;5.55;3.33;;;;;;;17.87;63.06;100591.84;5031332;28;20108;-51
2021/07/03 00:21:33;;;;;;;4.10;3.03;;;;;;;17.87;63.24;100597.44;5031613;28;20144;-41
2021/07/03 00:24:00;;;;;;;4.22;3.20;;;;;;;17.83;63.21;100596.63;5031109;28;20050;-41
2021/07/03 00:26:29;;;;;;;5.30;3.33;;;;;;;17.80;63.34;100587.00;5025494;28;20057;-42
2021/07/03 00:28:56;;;;;;;4.78;4.30;;;;;;;17.82;63.34;100595.81;5031612;28;20045;-43
2021/07/03 00:31:23;;;;;;;4.65;3.50;;;;;;;17.91;63.34;100595.41;5031639;28;20060;-41
2021/07/03 00:33:50;;;;;;;5.45;3.40;;;;;;;17.91;63.32;100584.22;5033561;28;20104;-41
2021/07/03 00:36:17;;;;;;;3.33;2.55;;;;;;;17.82;63.59;100584.59;5031609;28;20107;-43
2021/07/03 00:38:46;;;;;;;3.22;2.92;;;;;;;17.80;63.60;100580.59;5033990;28;20046;-43
2021/07/03 00:41:13;;;;;;;5.35;2.95;;;;;;;17.78;63.69;100577.41;5027561;28;20065;-43
2021/07/03 00:43:40;;;;;;;2.97;2.67;;;;;;;17.79;63.51;100574.19;5032023;28;20072;-42
2021/07/03 00:46:07;;;;;;;3.80;2.75;;;;;;;17.79;63.60;100574.19;5013525;28;20045;-41
2021/07/03 00:48:34;;;;;;;4.20;3.08;;;;;;;17.84;63.32;100567.41;5031788;28;20053;-42
2021/07/03 00:51:01;;;;;;;5.70;3.63;;;;;;;17.82;63.35;100567.78;5031444;28;20054;-41
2021/07/03 00:53:28;;;;;;;5.38;2.65;;;;;;;17.81;63.57;100563.41;5031785;28;20045;-42
2021/07/03 00:55:55;;;;;;;4.38;3.50;;;;;;;17.78;63.58;100569.81;5022758;28;20565;-43
2021/07/03 00:58:22;;;;;;;4.22;2.47;;;;;;;17.72;63.87;100560.19;5030351;28;20092;-41
2021/07/03 01:00:49;;;;;;;8.15;3.70;;;;;;;17.71;64.06;100560.59;5033906;28;20042;-43
2021/07/03 01:03:16;;;;;;;5.00;3.47;;;;;;;17.65;64.24;100560.19;5031671;28;20047;-44
2021/07/03 01:05:43;;;;;;;4.10;2.97;;;;;;;17.64;64.38;100562.19;5030944;28;20057;-41
2021/07/03 01:08:10;;;;;;;3.63;3.33;;;;;;;17.67;64.63;100554.19;5031013;28;20057;-41
2021/07/03 01:10:37;;;;;;;4.72;3.22;;;;;;;17.64;64.73;100558.56;5030651;28;20565;-41
2021/07/03 01:13:05;;;;;;;4.20;3.58;;;;;;;17.64;64.99;100558.56;5030985;28;20053;-41
2021/07/03 01:15:31;;;;;;;4.30;3.15;;;;;;;17.64;64.67;100550.97;5029403;28;20113;-42
2021/07/03 01:18:01;;;;;;;3.58;2.90;;;;;;;17.65;64.56;100546.19;5031040;28;20069;-42
2021/07/03 01:20:28;;;;;;;4.78;3.80;;;;;;;17.63;64.67;100549.38;5030562;28;20080;-44
2021/07/03 01:22:56;;;;;;;4.40;2.95;;;;;;;17.61;64.78;100546.19;5013973;28;20053;-43
2021/07/03 01:25:26;;;;;;;5.00;3.75;;;;;;;17.52;65.17;100551.34;5021755;28;20053;-41
2021/07/03 01:28:05;;;;;;;7.00;3.97;;;;;;;17.41;65.46;100550.50;5005508;28;20445;-41
2021/07/03 01:30:33;;;;;;;5.97;4.47;;;;;;;17.40;65.73;100546.09;5030721;28;20149;-44
2021/07/03 01:33:00;;;;;;;5.88;3.90;;;;;;;17.45;65.56;100548.50;5031156;28;20053;-42
2021/07/03 01:35:30;;;;;;;4.80;3.28;;;;;;;17.44;65.72;100551.72;5030297;28;20057;-42
2021/07/03 01:37:58;;;;;;;4.60;3.50;;;;;;;17.42;65.67;100543.69;5030321;28;20050;-42
2021/07/03 01:40:25;;;;;;;7.38;3.55;;;;;;;17.41;65.85;100544.91;5033395;28;20053;-42
2021/07/03 01:42:52;;;;;;;4.85;3.22;;;;;;;17.40;65.94;100545.28;5031093;28;20731;-42
2021/07/03 01:45:19;;;;;;;5.63;3.40;;;;;;;17.48;65.69;100550.53;5029590;28;20188;-42
2021/07/03 01:47:47;;;;;;;3.90;3.20;;;;;;;17.60;65.21;100550.19;5030848;28;20045;-42
2021/07/03 01:50:14;;;;;;;4.55;3.17;;;;;;;17.61;65.13;100546.19;5030271;28;20063;-44
2021/07/03 01:52:41;;;;;;;3.30;2.92;;;;;;;17.54;65.32;100540.56;5029974;28;20103;-41
2021/07/03 01:55:10;;;;;;;5.38;3.22;;;;;;;17.57;65.29;100533.38;5038284;28;20095;-41
2021/07/03 01:57:37;;;;;;;5.03;3.50;;;;;;;17.49;65.38;100535.34;5030553;28;20426;-41
2021/07/03 02:00:10;;;;;;;4.22;3.05;;;;;;;17.41;65.75;100530.91;5030852;28;20088;-41
2021/07/03 02:02:37;;;;;;;4.45;2.92;;;;;;;17.52;65.32;100526.16;5030422;28;20061;-41
2021/07/03 02:05:06;;;;;;;5.63;3.63;;;;;;;17.55;65.06;100519.75;5031063;28;20136;-42
2021/07/03 02:07:33;;;;;;;4.22;3.22;;;;;;;17.54;65.18;100518.19;5030927;28;20041;-42
2021/07/03 02:10:03;;;;;;;4.30;3.15;;;;;;;17.50;65.13;100514.53;5033576;28;20046;-41
2021/07/03 02:12:30;;;;;;;5.35;3.40;;;;;;;17.49;65.27;100512.94;5016919;28;20057;-42
2021/07/03 02:14:59;;;;;;;3.65;3.35;;;;;;;17.51;65.24;100520.94;5035547;28;20050;-41
2021/07/03 02:17:28;;;;;;;3.22;2.92;;;;;;;17.49;65.30;100518.53;5041376;28;20509;-42
2021/07/03 02:19:55;;;;;;;6.55;4.38;;;;;;;17.51;65.22;100518.94;5031815;28;20103;-42
2021/07/03 02:22:22;;;;;;;6.25;3.58;;;;;;;17.47;65.32;100512.53;5043258;28;20045;-42
2021/07/03 02:24:52;;;;;;;4.82;2.88;;;;;;;17.46;65.04;100513.72;5034384;28;20085;-42
2021/07/03 02:27:20;;;;;;;6.68;3.40;;;;;;;17.48;65.14;100519.72;5034377;28;20492;-43
2021/07/03 02:29:47;;;;;;;3.65;3.10;;;;;;;17.45;65.15;100514.91;5034260;28;20046;-42
2021/07/03 02:32:14;;;;;;;4.25;3.03;;;;;;;17.46;65.28;100513.72;5021470;28;20057;-41
2021/07/03 02:34:41;;;;;;;5.40;3.83;;;;;;;17.49;65.04;100510.16;5034854;28;20434;-44
2021/07/03 02:37:07;;;;;;;4.07;3.13;;;;;;;17.48;65.21;100513.31;5031749;28;20049;-41
2021/07/03 02:39:35;;;;;;;4.43;3.10;;;;;;;17.51;64.99;100510.53;5033719;28;20093;-43
2021/07/03 02:42:02;;;;;;;5.68;4.10;;;;;;;17.48;65.15;100514.13;5025387;28;20057;-42
2021/07/03 02:44:29;;;;;;;42.10;20.55;;;;;;;17.47;65.22;100506.91;5034360;28;20049;-41
2021/07/03 02:46:56;;;;;;;20.20;12.45;;;;;;;17.46;65.17;100494.16;5031439;28;20111;-42
2021/07/03 02:49:28;;;;;;;19.75;10.00;;;;;;;17.44;65.05;100502.16;5024155;28;20080;-41
2021/07/03 02:51:56;;;;;;;6.15;3.88;;;;;;;17.38;65.07;100498.13;5033976;28;20486;-39
2021/07/03 02:54:23;;;;;;;4.63;3.03;;;;;;;17.34;65.21;100494.50;5034828;28;20072;-39
2021/07/03 02:56:50;;;;;;;4.90;3.55;;;;;;;17.30;65.06;100479.72;5034000;28;20045;-39
2021/07/03 02:59:17;;;;;;;6.13;3.55;;;;;;;17.26;65.30;100481.69;5045184;28;20124;-39
2021/07/03 03:01:47;;;;;;;5.45;3.88;;;;;;;17.26;65.30;100480.91;5036601;28;20045;-39
2021/07/03 03:04:14;;;;;;;6.50;3.92;;;;;;;17.28;64.99;100472.94;5033762;28;20053;-39
2021/07/03 03:06:42;;;;;;;3.95;3.05;;;;;;;17.23;64.63;100474.13;5040306;28;20108;-41
2021/07/03 03:09:09;;;;;;;5.50;2.97;;;;;;;17.13;64.17;100472.06;5033268;28;20548;-39
2021/07/03 03:11:36;;;;;;;5.20;2.85;;;;;;;17.07;63.94;100482.06;5040134;28;20111;-40
2021/07/03 03:14:03;;;;;;;3.15;2.50;;;;;;;17.02;63.57;100468.47;5033146;28;20140;-44
2021/07/03 03:16:30;;;;;;;5.80;3.17;;;;;;;16.95;63.50;100469.25;5015004;28;20049;-39
2021/07/03 03:18:57;;;;;;;4.88;3.90;;;;;;;16.94;63.82;100466.84;5029575;28;20060;-39
2021/07/03 03:21:24;;;;;;;4.10;3.60;;;;;;;16.85;64.29;100458.03;5028625;28;20503;-39
2021/07/03 03:23:51;;;;;;;7.40;5.22;;;;;;;16.83;64.65;100454.81;5033163;28;20057;-38
2021/07/03 03:26:18;;;;;;;6.57;4.03;;;;;;;16.83;64.89;100458.44;5032698;28;20498;-37
2021/07/03 03:28:45;;;;;;;5.75;3.80;;;;;;;16.81;64.96;100449.63;5033007;28;20045;-38
2021/07/03 03:31:12;;;;;;;5.22;3.75;;;;;;;16.82;65.28;100453.22;5032949;28;20049;-38
2021/07/03 03:33:39;;;;;;;6.13;3.45;;;;;;;16.79;65.31;100449.22;5032988;28;20449;-38
2021/07/03 03:36:13;;;;;;;5.57;3.92;;;;;;;16.79;65.58;100451.19;5032568;28;20049;-38
2021/07/03 03:38:40;;;;;;;6.10;4.30;;;;;;;16.75;65.68;100451.22;5032507;28;20417;-38
2021/07/03 03:41:07;;;;;;;5.70;4.10;;;;;;;16.75;65.97;100450.41;5032491;28;20054;-41
2021/07/03 03:43:34;;;;;;;7.10;4.15;;;;;;;16.77;66.09;100445.22;5033052;28;20517;-41
2021/07/03 03:46:02;;;;;;;6.30;4.75;;;;;;;16.80;66.43;100450.03;5029837;28;20056;-42
2021/07/03 03:48:29;;;;;;;8.52;5.35;;;;;;;16.82;66.46;100444.81;5030248;28;20053;-43
2021/07/03 03:50:56;;;;;;;6.10;4.65;;;;;;;16.76;66.86;100449.22;5032604;28;20060;-42
2021/07/03 03:53:23;;;;;;;7.18;4.72;;;;;;;16.67;67.29;100440.38;5032531;28;20053;-46
2021/07/03 03:55:55;;;;;;;5.97;4.38;;;;;;;16.62;67.63;100433.19;5032536;28;20053;-41
2021/07/03 03:58:22;;;;;;;6.15;5.38;;;;;;;16.61;67.72;100428.78;5032645;28;20380;-42
2021/07/03 04:00:49;;;;;;;7.07;4.55;;;;;;;16.53;68.13;100424.34;5032151;28;20053;-41
2021/07/03 04:03:16;;;;;;;8.15;4.95;;;;;;;16.53;68.23;100423.56;5032740;28;20527;-41
2021/07/03 04:05:43;;;;;;;7.63;5.25;;;;;;;16.54;68.16;100417.59;5032239;28;20049;-41
2021/07/03 04:08:10;;;;;;;9.90;5.32;;;;;;;16.56;68.34;100417.19;5014069;28;20095;-46
2021/07/03 04:10:38;;;;;;;7.45;4.85;;;;;;;16.55;68.39;100416.38;5031774;28;20100;-41
2021/07/03 04:13:04;;;;;;;7.55;5.13;;;;;;;16.51;68.67;100417.53;5032088;28;20041;-41
2021/07/03 04:15:32;;;;;;;7.75;5.10;;;;;;;16.49;68.86;100405.97;5031691;28;20057;-41
2021/07/03 04:17:59;;;;;;;6.72;4.93;;;;;;;16.49;69.03;100411.53;5028959;28;20128;-41
2021/07/03 04:20:26;;;;;;;7.28;4.80;;;;;;;16.41;69.07;100417.09;5031972;28;20050;-40
2021/07/03 04:22:53;;;;;;;5.78;4.70;;;;;;;16.32;69.47;100425.03;5032046;28;20057;-42
2021/07/03 04:25:20;;;;;;;6.13;4.55;;;;;;;16.25;69.79;100419.44;5031545;28;20056;-41
2021/07/03 04:27:48;;;;;;;6.30;5.15;;;;;;;16.23;69.67;100419.00;5031925;28;20100;-40
2021/07/03 04:30:17;;;;;;;7.60;5.03;;;;;;;16.21;70.06;100413.00;5031355;28;20121;-43
2021/07/03 04:32:44;;;;;;;7.00;5.65;;;;;;;16.17;70.33;100420.56;5030937;28;20056;-43
2021/07/03 04:35:12;;;;;;;8.68;5.80;;;;;;;16.17;70.65;100428.16;5031089;28;20136;-42
2021/07/03 04:37:40;;;;;;;10.65;6.95;;;;;;;16.06;71.31;100424.50;5031154;28;20107;-45
2021/07/03 04:40:08;;;;;;;8.05;6.70;;;;;;;16.02;71.41;100421.66;5031438;28;20677;-42
2021/07/03 04:42:38;;;;;;;12.75;7.32;;;;;;;16.03;71.71;100426.06;5031597;28;20064;-42
2021/07/03 04:45:06;;;;;;;8.35;6.50;;;;;;;16.03;72.02;100428.88;5031580;28;20095;-41
2021/07/03 04:47:34;;;;;;;7.32;6.00;;;;;;;15.92;72.09;100439.16;5024660;28;20590;-41
2021/07/03 04:50:01;;;;;;;8.38;6.75;;;;;;;15.80;72.37;100431.09;5031387;28;20045;-41
2021/07/03 04:52:29;;;;;;;8.60;5.80;;;;;;;15.72;72.41;100435.03;5031298;28;20046;-41
2021/07/03 04:54:58;;;;;;;8.57;6.10;;;;;;;15.64;72.55;100438.97;5030906;28;20104;-41
2021/07/03 04:57:25;;;;;;;11.90;6.53;;;;;;;15.64;72.61;100436.16;5030955;28;20053;-41
2021/07/03 04:59:52;;;;;;;12.13;6.05;;;;;;;15.62;72.74;100447.69;5031176;28;20057;-41
2021/07/03 05:02:19;;;;;;;14.55;7.88;;;;;;;15.61;72.91;100445.31;5030368;28;20045;-41
2021/07/03 05:04:46;;;;;;;10.75;6.38;;;;;;;15.60;73.15;100444.50;5031681;28;20544;-41
2021/07/03 05:07:17;;;;;;;10.95;8.32;;;;;;;15.57;73.17;100434.09;5030701;28;20053;-45
2021/07/03 05:09:44;;;;;;;10.75;7.13;;;;;;;15.62;73.26;100435.75;5031246;28;20053;-40
2021/07/03 05:12:13;;;;;;;9.55;7.18;;;;;;;15.63;73.48;100440.13;5030589;28;20049;-41
2021/07/03 05:14:44;;;;;;;13.53;7.30;;;;;;;15.57;73.61;100439.69;5025539;28;20501;-40
2021/07/03 05:17:11;;;;;;;10.18;6.78;;;;;;;15.53;73.94;100435.28;5022744;28;20112;-42
2021/07/03 05:19:38;;;;;;;11.50;6.97;;;;;;;15.49;74.09;100432.44;5030503;28;20049;-40
2021/07/03 05:22:05;;;;;;;10.70;6.53;;;;;;;15.50;74.29;100433.25;5031353;28;20145;-40
2021/07/03 05:24:33;;;;;;;9.25;6.25;;;;;;;15.51;74.33;100432.06;5030986;28;20569;-41
2021/07/03 05:27:01;;;;;;;9.50;5.78;;;;;;;15.41;74.50;100424.38;5031170;28;20061;-40
2021/07/03 05:29:29;;;;;;;11.35;6.25;;;;;;;15.43;74.35;100422.00;5030526;28;20080;-42
2021/07/03 05:31:56;;;;;;;8.75;7.40;;;;;;;15.39;74.49;100416.38;5030560;28;20094;-40
2021/07/03 05:34:23;;;;;;;8.57;6.15;;;;;;;15.37;74.72;100418.78;5026609;28;20049;-41
2021/07/03 05:36:50;;;;;;;10.15;6.43;;;;;;;15.39;74.59;100421.16;5031016;28;20053;-43
2021/07/03 05:39:17;;;;;;;9.25;6.10;;;;;;;15.45;74.42;100414.84;5030176;28;20049;-42
2021/07/03 05:41:43;;;;;;;8.98;6.28;;;;;;;15.45;74.51;100430.78;5030865;28;20388;-46
2021/07/03 05:44:10;;;;;;;6.88;4.68;;;;;;;15.40;74.42;100414.41;5030175;28;20077;-43
2021/07/03 05:46:38;;;;;;;7.93;5.05;;;;;;;15.35;74.69;100415.56;5022803;28;20050;-43
2021/07/03 05:49:06;;;;;;;6.97;4.25;;;;;;;15.39;74.52;100415.59;5018588;28;20128;-42
2021/07/03 05:51:36;;;;;;;7.65;4.60;;;;;;;15.47;74.49;100408.91;5030660;28;20057;-43
2021/07/03 05:54:02;;;;;;;6.15;4.50;;;;;;;15.49;74.60;100414.94;5029674;28;20049;-41
2021/07/03 05:56:29;;;;;;;8.60;5.28;;;;;;;15.53;74.56;100410.97;5030843;28;20119;-41
2021/07/03 05:58:56;;;;;;;6.10;4.15;;;;;;;15.57;74.41;100410.97;5027964;28;20053;-41
2021/07/03 06:01:23;;;;;;;5.45;4.65;;;;;;;15.60;74.57;100405.44;5030558;28;20049;-41
2021/07/03 06:03:56;;;;;;;11.15;4.97;;;;;;;15.66;74.68;100403.09;5030892;28;20069;-41
2021/07/03 06:06:22;;;;;;;7.95;4.20;;;;;;;15.75;74.61;100411.94;5030045;28;20080;-42
2021/07/03 06:08:50;;;;;;;7.65;4.53;;;;;;;15.77;74.48;100413.16;5029799;28;20061;-43
2021/07/03 06:11:19;;;;;;;4.90;4.32;;;;;;;15.74;74.72;100410.31;5030096;28;20147;-42
2021/07/03 06:13:46;;;;;;;7.32;4.35;;;;;;;15.76;74.71;100407.94;5030897;28;20138;-41
2021/07/03 06:16:15;;;;;;;8.20;4.68;;;;;;;15.74;74.73;100397.16;5029543;28;20079;-42
2021/07/03 06:18:42;;;;;;;8.02;5.13;;;;;;;15.73;74.83;100397.53;5029605;28;20402;-44
2021/07/03 06:21:09;;;;;;;5.97;4.35;;;;;;;15.72;75.17;100401.53;5030283;28;20136;-41
2021/07/03 06:23:35;;;;;;;5.78;4.82;;;;;;;15.73;75.26;100389.97;5030132;28;20076;-41
2021/07/03 06:26:05;;;;;;;7.97;5.25;;;;;;;15.79;75.22;100390.41;5030260;28;20509;-44
2021/07/03 06:28:32;;;;;;;5.28;4.13;;;;;;;15.84;75.42;100390.03;5030197;28;20045;-43
2021/07/03 06:30:59;;;;;;;9.73;5.35;;;;;;;15.90;75.39;100385.72;5029856;28;20144;-41
2021/07/03 06:33:26;;;;;;;5.97;5.40;;;;;;;15.94;75.25;100385.75;5023369;28;20095;-42
2021/07/03 06:35:53;;;;;;;7.07;4.57;;;;;;;15.88;75.53;100382.50;5030791;28;20471;-45
2021/07/03 06:38:19;;;;;;;11.23;6.00;;;;;;;15.87;75.42;100380.91;5029669;28;20574;-44
2021/07/03 06:40:46;;;;;;;9.98;4.75;;;;;;;15.83;75.47;100382.88;5029948;28;20088;-41
2021/07/03 06:43:13;;;;;;;5.65;4.75;;;;;;;15.83;75.76;100374.50;5030311;28;20049;-41
2021/07/03 06:45:40;;;;;;;7.55;4.45;;;;;;;15.82;75.79;100386.84;5029026;28;20049;-41
2021/07/03 06:48:07;;;;;;;7.78;5.05;;;;;;;15.86;75.79;100379.28;5030144;28;20049;-43
2021/07/03 06:50:34;;;;;;;9.02;4.78;;;;;;;15.83;75.79;100386.44;5029641;28;20074;-43
2021/07/03 06:53:01;;;;;;;8.98;5.20;;;;;;;15.77;76.23;100376.06;5013019;28;20153;-42
2021/07/03 06:55:28;;;;;;;6.50;4.55;;;;;;;15.77;76.13;100382.44;5030480;28;20081;-41
2021/07/03 06:57:55;;;;;;;8.77;4.63;;;;;;;15.75;76.29;100373.63;5033282;28;20080;-42
2021/07/03 07:00:22;;;;;;;13.20;6.75;;;;;;;15.79;76.23;100371.69;5032964;28;20075;-43
2021/07/03 07:02:49;;;;;;;8.52;5.35;;;;;;;15.85;76.33;100369.31;5034086;28;20128;-42
2021/07/03 07:05:19;;;;;;;8.88;5.20;;;;;;;15.80;76.12;100364.91;5033289;28;20068;-41
2021/07/03 07:07:46;;;;;;;8.20;4.72;;;;;;;15.75;76.59;100370.06;5015994;28;20233;-41
2021/07/03 07:10:13;;;;;;;7.28;5.03;;;;;;;15.72;76.43;100368.06;5033718;28;20042;-42
2021/07/03 07:12:43;;;;;;;8.00;5.18;;;;;;;15.72;76.33;100380.03;5024502;28;20103;-41
2021/07/03 07:15:11;;;;;;;7.40;4.55;;;;;;;15.79;76.50;100359.72;5033006;28;20108;-45
2021/07/03 07:17:38;;;;;;;6.38;4.57;;;;;;;15.84;76.36;100359.34;5032222;28;20053;-42
2021/07/03 07:20:06;;;;;;;8.63;4.60;;;;;;;15.99;76.45;100368.63;5033595;28;20129;-46
2021/07/03 07:22:36;;;;;;;7.85;5.15;;;;;;;16.19;76.39;100370.69;5023977;28;20053;-44
2021/07/03 07:25:04;;;;;;;5.95;4.47;;;;;;;16.41;76.25;100366.00;5033450;28;20451;-42
2021/07/03 07:27:31;;;;;;;6.50;4.55;;;;;;;16.63;76.23;100361.28;5032589;28;20076;-45
2021/07/03 07:29:59;;;;;;;7.32;4.80;;;;;;;16.75;75.67;100374.91;5032457;28;20057;-43
2021/07/03 07:32:26;;;;;;;7.07;4.03;;;;;;;16.64;75.21;100382.47;5030828;28;20081;-43
2021/07/03 07:34:55;;;;;;;7.65;4.72;;;;;;;16.57;74.92;100386.06;5026741;28;20068;-44
2021/07/03 07:37:22;;;;;;;6.30;4.70;;;;;;;16.50;74.78;100387.97;5032522;28;20085;-43
2021/07/03 07:39:49;;;;;;;5.28;4.18;;;;;;;16.40;75.02;100387.56;5033182;28;20061;-43
2021/07/03 07:42:18;;;;;;;6.93;4.65;;;;;;;16.36;74.91;100385.94;5032056;28;20172;-44
2021/07/03 07:44:45;;;;;;;5.90;4.38;;;;;;;16.38;74.94;100377.97;5032671;28;20467;-42
2021/07/03 07:47:11;;;;;;;6.25;3.88;;;;;;;16.34;74.91;100383.53;5029558;28;20152;-41
2021/07/03 07:49:39;;;;;;;4.35;3.88;;;;;;;16.32;74.76;100377.53;5031870;28;20103;-44
2021/07/03 07:52:12;;;;;;;7.53;4.65;;;;;;;16.36;74.85;100371.97;5030971;28;20111;-43
2021/07/03 07:54:38;;;;;;;7.82;4.55;;;;;;;16.49;74.86;100392.78;5032690;28;20144;-45
2021/07/03 07:57:06;;;;;;;6.63;4.65;;;;;;;16.63;74.37;100389.25;5030845;28;20045;-43
2021/07/03 07:59:33;;;;;;;6.85;4.30;;;;;;;16.67;74.04;100398.47;5032598;28;20065;-46
2021/07/03 08:02:00;;;;;;;5.07;4.07;;;;;;;16.72;74.13;100389.69;5032488;28;20045;-43
2021/07/03 08:04:30;;;;;;;9.98;5.30;;;;;;;16.60;73.75;100395.66;5032731;28;20465;-43
2021/07/03 08:06:57;;;;;;;7.57;5.20;;;;;;;16.42;73.89;100396.34;5030852;28;20164;-45
2021/07/03 08:09:27;;;;;;;7.32;5.70;;;;;;;16.30;73.99;100396.69;5032437;28;20170;-43
2021/07/03 08:11:54;;;;;;;8.10;5.70;;;;;;;16.19;74.18;100398.63;5030638;28;20546;-45
2021/07/03 08:14:21;;;;;;;6.65;5.15;;;;;;;16.17;74.35;100395.44;5028659;28;20061;-42
2021/07/03 08:16:47;;;;;;;6.90;5.18;;;;;;;16.14;74.63;100387.84;5030839;28;20560;-45
2021/07/03 08:19:17;;;;;;;10.05;5.65;;;;;;;16.18;74.74;100383.06;5032298;28;20073;-43
2021/07/03 08:21:44;;;;;;;9.70;5.50;;;;;;;16.21;74.93;100382.28;5031892;28;20132;-42
2021/07/03 08:24:11;;;;;;;12.38;6.55;;;;;;;16.22;74.85;100375.50;5031719;28;20061;-43
2021/07/03 08:26:38;;;;;;;10.43;5.40;;;;;;;16.22;74.83;100385.88;5029943;28;20469;-47
2021/07/03 08:29:05;;;;;;;9.60;5.88;;;;;;;16.23;74.81;100371.50;5032315;28;20045;-46
2021/07/03 08:31:36;;;;;;;12.02;5.50;;;;;;;16.16;74.79;100377.06;5031866;28;20107;-45
2021/07/03 08:34:06;;;;;;;6.55;5.18;;;;;;;16.16;74.93;100382.66;5032062;28;20107;-44
2021/07/03 08:36:33;;;;;;;6.97;5.75;;;;;;;16.11;74.92;100368.25;5031638;28;20451;-42
2021/07/03 08:39:00;;;;;;;7.78;5.80;;;;;;;16.15;75.09;100367.06;5027931;28;20749;-45
2021/07/03 08:41:29;;;;;;;8.95;4.97;;;;;;;16.20;74.87;100363.91;5024708;28;20749;-42
2021/07/03 08:43:56;;;;;;;6.03;4.65;;;;;;;16.23;74.66;100367.94;5029163;28;20100;-41
2021/07/03 08:46:23;;;;;;;9.38;5.15;;;;;;;16.28;74.74;100373.91;5011494;28;20073;-41
2021/07/03 08:48:54;;;;;;;8.27;5.80;;;;;;;16.27;74.72;100360.34;5021259;28;20050;-43
2021/07/03 08:51:24;;;;;;;7.88;5.43;;;;;;;16.31;74.80;100356.38;5026208;28;20065;-41
2021/07/03 08:53:51;;;;;;;7.57;4.60;;;;;;;16.39;74.74;100357.19;5026124;28;20116;-42
2021/07/03 08:56:19;;;;;;;8.30;4.40;;;;;;;16.50;74.62;100357.22;5029036;28;20076;-43
2021/07/03 08:58:47;;;;;;;9.32;5.25;;;;;;;16.53;74.85;100362.06;5024323;28;20148;-51
2021/07/03 09:01:19;;;;;;;9.25;5.10;;;;;;;16.54;74.48;100358.91;5027445;28;20056;-44
2021/07/03 09:03:53;;;;;;;8.85;4.68;;;;;;;16.50;74.70;100365.63;5028164;28;20063;-43
2021/07/03 09:06:31;;;;;;;8.25;5.28;;;;;;;16.47;74.84;100355.25;5025448;28;20100;-43
2021/07/03 09:08:58;;;;;;;10.35;5.85;;;;;;;16.50;74.73;100360.03;5021895;28;20068;-42
2021/07/03 09:11:25;;;;;;;8.27;5.15;;;;;;;16.53;74.51;100356.47;5027088;28;20157;-42
2021/07/03 09:14:07;;;;;;;13.63;6.93;;;;;;;16.52;75.03;100355.66;5023892;28;20080;-42
2021/07/03 09:16:38;;;;;;;10.02;5.97;;;;;;;16.54;74.63;100358.09;5017619;28;20073;-43
2021/07/03 09:19:08;;;;;;;8.77;5.55;;;;;;;16.56;74.68;100345.31;5008237;28;20081;-42
2021/07/03 09:21:37;;;;;;;8.18;5.18;;;;;;;16.58;74.87;100336.53;5008085;28;20468;-44
2021/07/03 09:24:13;;;;;;;9.15;5.82;;;;;;;16.64;75.21;100330.16;5019690;28;20053;-46
2021/07/03 09:26:40;;;;;;;10.55;5.90;;;;;;;16.62;75.17;100331.75;5013790;28;20561;-43
2021/07/03 09:29:10;;;;;;;14.27;7.80;;;;;;;16.61;75.35;100330.97;5011900;28;20104;-43
2021/07/03 09:31:42;;;;;;;13.70;6.75;;;;;;;16.55;75.46;100326.16;5012058;28;20080;-42
2021/07/03 09:34:14;;;;;;;10.40;6.38;;;;;;;16.35;75.93;100329.28;5023739;28;20058;-45
2021/07/03 09:36:41;;;;;;;11.88;7.05;;;;;;;16.30;76.16;100335.25;5009752;28;20511;-44
2021/07/03 09:39:08;;;;;;;11.20;5.95;;;;;;;16.25;76.34;100334.81;5029176;28;20128;-43
2021/07/03 09:41:37;;;;;;;8.55;6.80;;;;;;;16.25;76.68;100330.03;5005242;28;20507;-44
2021/07/03 09:44:11;;;;;;;14.27;7.05;;;;;;;16.28;76.96;100328.44;5015016;28;20072;-41
2021/07/03 09:46:45;;;;;;;12.93;7.35;;;;;;;16.31;77.17;100327.63;5014391;28;20052;-45
2021/07/03 09:49:14;;;;;;;9.48;6.45;;;;;;;16.32;77.30;100320.88;5022461;28;20050;-44
2021/07/03 09:51:43;;;;;;;11.98;6.97;;;;;;;16.35;77.64;100312.50;4998353;28;20088;-44
2021/07/03 09:54:15;;;;;;;10.55;7.50;;;;;;;16.43;77.55;100313.31;5009094;28;20053;-42
2021/07/03 09:56:45;;;;;;;;;;;;;;;16.46;78.24;100323.72;5013180;28;20061;-43
2021/07/03 09:59:12;;;;;;;13.85;7.47;;;;;;;16.45;77.30;100322.91;5010119;28;19921;-43
2021/07/03 10:01:42;;;;;;;10.90;7.47;;;;;;;16.45;77.58;100324.91;5015741;28;20140;-43
2021/07/03 10:04:10;;;;;;;11.95;7.88;;;;;;;16.50;77.49;100321.72;5009311;28;20104;-39
2021/07/03 10:06:55;;;;;;;19.70;10.02;;;;;;;16.44;78.23;100317.72;5009045;28;20161;-43
2021/07/03 10:09:29;;;;;;;15.43;9.85;;;;;;;16.48;78.17;100326.09;4994307;28;20124;-40
2021/07/03 10:12:01;;;;;;;16.70;9.38;;;;;;;16.41;78.40;100326.91;5011622;28;20055;-41
2021/07/03 10:14:37;;;;;;;15.50;9.23;;;;;;;16.47;78.30;100316.13;4995619;28;20046;-43
2021/07/03 10:17:04;;;;;;;12.85;9.75;;;;;;;16.58;78.03;100314.16;5018132;28;20054;-42
2021/07/03 10:19:34;;;;;;;13.45;8.85;;;;;;;16.67;78.06;100309.00;5012468;28;20053;-41
2021/07/03 10:22:13;;;;;;;13.00;9.55;;;;;;;16.78;78.79;100312.63;5019215;28;20871;-40
2021/07/03 10:24:43;;;;;;;16.35;11.57;;;;;;;16.81;77.98;100304.22;5012393;28;20054;-41
2021/07/03 10:27:22;;;;;;;18.10;10.60;;;;;;;16.81;78.47;100300.66;5008892;28;20059;-43
2021/07/03 10:29:57;;;;;;;15.50;9.85;;;;;;;16.89;78.07;100307.84;5014129;28;20112;-45
2021/07/03 10:32:33;;;;;;;16.65;11.07;;;;;;;16.90;78.47;100309.44;5024750;28;20046;-46
2021/07/03 10:35:15;;;;;;;19.33;12.20;;;;;;;16.96;78.96;100319.03;4979771;28;20140;-43
2021/07/03 10:37:48;;;;;;;14.88;10.23;;;;;;;17.08;78.44;100313.03;4981786;28;20143;-42
2021/07/03 10:40:34;;;;;;;16.27;10.48;;;;;;;17.16;78.35;100308.22;5022943;28;20146;-42
2021/07/03 10:43:09;;;;;;;17.42;10.77;;;;;;;17.32;78.44;100300.22;4995506;28;20410;-40
2021/07/03 10:45:48;;;;;;;16.38;10.57;;;;;;;17.53;78.40;100300.22;5012719;28;20061;-40
2021/07/03 10:48:26;;;;;;;14.43;9.13;;;;;;;17.86;77.97;100299.75;5022403;28;20081;-42
2021/07/03 10:51:08;;;;;;;14.65;9.57;;;;;;;18.08;77.52;100295.66;5000776;28;20057;-45
2021/07/03 10:53:35;;;;;;;14.43;10.35;;;;;;;18.03;77.37;100296.06;5012153;28;20400;-45
2021/07/03 10:56:13;;;;;;;16.25;10.07;;;;;;;17.99;77.09;100291.69;5012158;28;20498;-47
2021/07/03 10:58:42;;;;;;;14.80;9.93;;;;;;;17.92;76.75;100278.53;5026847;28;20054;-43
2021/07/03 11:01:15;;;;;;;14.48;10.40;;;;;;;17.83;76.80;100278.16;5012679;28;20153;-47
2021/07/03 11:03:44;;;;;;;;;;;;;;;17.90;77.20;100271.72;5012692;28;20415;-41
2021/07/03 11:06:12;;;;;;;13.50;9.98;;;;;;;18.16;76.74;100272.00;5014097;28;19931;-41
2021/07/03 11:08:40;;;;;;;14.35;9.60;;;;;;;18.29;76.20;100272.34;5012070;28;20065;-42
2021/07/03 11:11:09;;;;;;;16.48;10.80;;;;;;;18.29;75.92;100271.56;5011461;28;20057;-42
2021/07/03 11:13:36;;;;;;;16.73;10.40;;;;;;;18.59;76.01;100269.78;5019430;28;20116;-47
2021/07/03 11:16:06;;;;;;;14.73;9.90;;;;;;;18.90;75.56;100272.78;5017944;28;20102;-42
2021/07/03 11:18:36;;;;;;;11.82;8.85;;;;;;;19.23;75.52;100281.31;5016775;28;20053;-42
2021/07/03 11:21:09;;;;;;;10.15;8.02;;;;;;;19.36;74.95;100284.38;5021099;28;20056;-47
2021/07/03 11:23:37;;;;;;;13.52;8.05;;;;;;;19.40;74.56;100288.81;5012269;28;20065;-44
2021/07/03 11:26:15;;;;;;;12.82;8.18;;;;;;;19.20;73.10;100290.53;4994480;28;20184;-42
2021/07/03 11:28:48;;;;;;;11.70;7.93;;;;;;;19.11;73.42;100278.22;5010259;28;20049;-42
2021/07/03 11:31:18;;;;;;;11.65;7.90;;;;;;;19.02;73.53;100281.47;5019200;28;20057;-43